Weather observations for the past three days for
Burlington Regional Airport
Imperial (Metric)
Date Time (cdt) Wind (mph) Vis. (mi.) Weather Sky Cond. Temperature (ºF) Relative Humidity Wind Chill (°F) Heat Index (°F) Pressure Precipitation (in)
Air Dwpt 6 hour altimeter (in) sea level (mb) 1 hr 3 hr 6 hr
Max. Min.
01 15:53 SW 8 10.00 Fair CLR 96.1 71.1 44% 104 29.95 1013.4
01 14:53 SW 9 10.00 Fair CLR 96.1 71.1 44% 104 29.96 1013.6
01 13:53 W 7 8.00 Fair CLR 96.1 71.1 44% 104 29.97 1014.2
01 12:53 W 8 9.00 Fair CLR 93 72 93.9 71.1 50% 101 29.99 1014.6
01 11:53 SW 7 10.00 Fair CLR 91 73 56% 100 30 1015.1
01 10:53 W 9 10.00 Fair CLR 88 71.1 57% 94 30 1015.4
01 09:53 SW 8 10.00 Fair CLR 84 70 63% 88 30.01 1015.5
01 08:53 SW 8 10.00 Fair CLR 79 72 79% 82 30.01 1015.5
01 07:53 SW 8 8.00 Fair CLR 75 71.1 88% 75 30 1015.4
01 06:53 SW 6 6.00 Fog/Mist CLR 71.1 69.1 77 71.1 94% 29.98 1014.7
01 05:53 SW 6 10.00 Fair CLR 72 70 94% 29.97 1014.1
01 04:53 S 5 6.00 Fog/Mist CLR 73 70 90% 29.96 1013.9
01 03:53 S 3 9.00 Fair CLR 72 71.1 97% 29.96 1013.8
01 02:53 Calm 10.00 Fair CLR 73.9 72 94% 29.96 1013.8
01 01:53 SW 5 10.00 Fair CLR 75.9 72 88% 76 29.96 1013.8
01 00:53 SW 5 10.00 Fair CLR 77 72 87.1 75 85% 78 29.96 1013.7
31 23:53 SW 3 10.00 Fair CLR 79 73 82% 82 29.95 1013.5
31 22:53 SW 6 10.00 Fair CLR 78.1 73.9 87% 81 29.94 1013.3
31 21:53 W 5 10.00 Fair CLR 80.1 75 85% 85 29.95 1013.3
31 20:53 SW 6 10.00 Fair CLR 80.1 75 85% 85 29.93 1013.1
31 19:53 S 5 7.00 Fair CLR 82 75 79% 89 29.92 1012.6
31 18:53 SW 5 8.00 Fair CLR 87.1 78.1 93.9 87.1 75% 100 29.92 1012.3
31 17:53 W 3 10.00 Fair CLR 91 73.9 57% 101 29.91 1012.1
31 16:53 W 7 10.00 Fair CLR 91 73.9 57% 101 29.91 1012.3
31 15:53 SW 8 10.00 Fair CLR 91 73 56% 100 29.92 1012.3
31 14:53 SW 8 10.00 Fair CLR 91.9 72 52% 100 29.92 1012.3
31 13:53 SW 8 10.00 Fair CLR 91 72 54% 99 29.92 1012.6
31 12:53 SW 10 10.00 Fair CLR 91 71.1 91 73.9 52% 98 29.94 1013.0
31 11:53 SW 10 9.00 Fair CLR 88 69.1 54% 92 29.95 1013.5
31 10:53 SW 12 9.00 Fair CLR 84.9 70 61% 89 29.94 1013.2
31 09:53 SW 13 9.00 Fair CLR 81 66.9 62% 83 29.93 1012.9
31 08:53 SW 12 10.00 Mostly Cloudy BKN120 78.1 66 67% 80 29.94 1013.2
31 06:53 S 10 10.00 Overcast OVC110 73.9 64.9 78.1 73 74% 29.93 1012.8
31 05:53 SW 10 10.00 Partly Cloudy SCT100 73 64.9 76% 29.93 1012.8
31 04:53 S 10 10.00 Fair CLR 73 64.9 76% 29.93 1012.7
31 03:53 S 10 10.00 Fair CLR 73.9 64.9 74% 29.92 1012.5
31 01:53 SW 10 10.00 Fair CLR 75.9 64.9 69% 78 29.92 1012.6
31 00:53 S 13 10.00 Fair CLR 77 66 84.9 75.9 69% 79 29.92 1012.6
30 23:53 S 13 10.00 Fair CLR 77 66 69% 79 29.93 1012.8
30 22:53 S 12 10.00 Fair CLR 79 66.9 67% 81 29.94 1013.2
30 21:53 S 8 10.00 Fair CLR 79 68 69% 81 29.93 1013.1
30 20:53 S 8 10.00 Fair CLR 80.1 70 71% 83 29.92 1012.5
30 19:53 S 7 10.00 Fair CLR 81 73 77% 86 29.91 1012.3
30 18:53 SE 6 10.00 Fair CLR 84 73 90 82 70% 90 29.91 1012.3
30 17:53 SE 7 10.00 Fair CLR 87.1 73.9 65% 95 29.91 1012.1
30 16:53 S 8 10.00 Fair CLR 89.1 72 57% 96 29.91 1012.3
30 15:53 S 10 10.00 Fair CLR 89.1 71.1 55% 95 29.94 1013.1
30 14:53 S 9 10.00 Fair CLR 89.1 71.1 55% 95 29.95 1013.4
30 13:53 SW 5 10.00 Partly Cloudy SCT110 82.9 70 65% 87 29.95 1013.8
30 12:53 S 8 10.00 Fair CLR 82 70 82 70 67% 86 29.95 1013.7
30 11:53 S 12 10.00 A Few Clouds FEW085 79 66.9 67% 81 29.96 1013.9
30 10:53 S 13 10.00 A Few Clouds FEW041 FEW080 FEW110 75.9 66.9 74% 77 29.97 1014.5
30 09:53 SW 8 G 18 10.00 Thunderstorm in Vicinity BKN110 75.9 64.9 69% 78 29.96 1014.1
30 08:53 SW 10 10.00 A Few Clouds FEW110 73 64 74% 29.94 1013.3
30 07:53 S 12 10.00 Mostly Cloudy BKN110 71.1 62.1 73% 29.95 1013.7
30 06:53 SW 14 10.00 A Few Clouds FEW100 70 62.1 72 70 76% 29.94 1013.4
30 05:53 SW 13 10.00 Mostly Cloudy BKN110 71.1 63 76% 29.93 1013.2
30 04:53 SW 14 10.00 Mostly Cloudy BKN110 71.1 63 76% 29.94 1013.3
30 03:53 SW 13 10.00 Fair CLR 71.1 64 79% 29.94 1013.4
30 02:53 S 13 G 23 10.00 Fair CLR 71.1 64 79% 29.93 1013.2
30 01:53 S 13 10.00 Fair CLR 72 64 76% 29.95 1013.7
30 00:53 S 12 10.00 Fair CLR 72 64 80.1 72 76% 29.96 1014.1
29 23:53 S 14 10.00 A Few Clouds FEW095 73 64.9 76% 29.96 1014.0
29 22:53 S 15 10.00 Fair CLR 73.9 64.9 74% 29.97 1014.4
29 21:53 S 13 10.00 Fair CLR 73.9 64.9 74% 29.96 1014.1
29 20:53 S 10 10.00 Fair CLR 75 66.9 76% 76 29.96 1014.0
29 19:53 S 12 10.00 Fair CLR 75.9 66.9 74% 77 29.95 1013.7
29 18:53 S 13 G 22 10.00 Fair CLR 80.1 68 82 78.1 67% 83 29.95 1013.7
29 17:53 S 13 10.00 Fair CLR 80.1 68 67% 83 29.96 1014.1
29 16:53 S 15 G 25 10.00 Fair CLR 79 66.9 67% 81 29.97 1014.6
Date Time (cdt) Wind (mph) Vis. (mi.) Weather Sky Cond. Air Dwpt Max. Min. Relative Humidity Wind Chill (°F) Heat Index (°F) altimeter (in) sea level (mb) 1 hr 3 hr 6 hr
6 hour
Temperature (ºF) Pressure Precipitation (in)